sensor_id;sensor_type;location;lat;lon;timestamp;pressure;altitude;pressure_sealevel;temperature
14666;BMP280;7420;53.574;10.040;2023-12-07T00:01:27;12705.34;;;-136.87
14666;BMP280;7420;53.574;10.040;2023-12-07T00:03:53;12713.38;;;-136.87
14666;BMP280;7420;53.574;10.040;2023-12-07T00:06:18;12681.19;;;-136.87
14666;BMP280;7420;53.574;10.040;2023-12-07T00:08:44;12671.13;;;-136.87
14666;BMP280;7420;53.574;10.040;2023-12-07T00:11:09;12703.31;;;-136.87
14666;BMP280;7420;53.574;10.040;2023-12-07T00:13:34;12699.28;;;-136.87
14666;BMP280;7420;53.574;10.040;2023-12-07T00:16:00;12697.28;;;-136.87
14666;BMP280;7420;53.574;10.040;2023-12-07T00:18:25;12689.25;;;-136.87
14666;BMP280;7420;53.574;10.040;2023-12-07T00:20:50;12628.88;;;-136.87
14666;BMP280;7420;53.574;10.040;2023-12-07T00:23:16;12685.22;;;-136.87
14666;BMP280;7420;53.574;10.040;2023-12-07T00:25:41;12735.50;;;-136.87
14666;BMP280;7420;53.574;10.040;2023-12-07T00:28:06;12673.13;;;-136.87
14666;BMP280;7420;53.574;10.040;2023-12-07T00:30:32;12669.13;;;-136.87
14666;BMP280;7420;53.574;10.040;2023-12-07T00:32:58;12691.25;;;-136.87
14666;BMP280;7420;53.574;10.040;2023-12-07T00:35:24;12725.47;;;-136.87
14666;BMP280;7420;53.574;10.040;2023-12-07T00:37:50;12685.22;;;-136.87
14666;BMP280;7420;53.574;10.040;2023-12-07T00:40:15;12661.06;;;-136.87
14666;BMP280;7420;53.574;10.040;2023-12-07T00:42:40;12681.19;;;-136.87
14666;BMP280;7420;53.574;10.040;2023-12-07T00:45:06;12632.91;;;-136.87
14666;BMP280;7420;53.574;10.040;2023-12-07T00:47:31;12636.91;;;-136.87
14666;BMP280;7420;53.574;10.040;2023-12-07T00:49:57;12636.91;;;-136.87
14666;BMP280;7420;53.574;10.040;2023-12-07T00:52:22;12675.16;;;-136.87
14666;BMP280;7420;53.574;10.040;2023-12-07T00:54:47;12715.41;;;-136.87
14666;BMP280;7420;53.574;10.040;2023-12-07T00:57:13;12689.25;;;-136.87
14666;BMP280;7420;53.574;10.040;2023-12-07T00:59:38;12677.16;;;-136.87
14666;BMP280;7420;53.574;10.040;2023-12-07T01:04:49;12715.41;;;-136.87
14666;BMP280;7420;53.574;10.040;2023-12-07T01:07:15;12693.25;;;-136.87
14666;BMP280;7420;53.574;10.040;2023-12-07T01:09:40;12665.09;;;-136.87
14666;BMP280;7420;53.574;10.040;2023-12-07T01:12:05;12673.13;;;-136.87
14666;BMP280;7420;53.574;10.040;2023-12-07T01:14:31;12653.03;;;-136.87
14666;BMP280;7420;53.574;10.040;2023-12-07T01:16:57;12638.94;;;-136.87
14666;BMP280;7420;53.574;10.040;2023-12-07T01:19:22;12636.91;;;-136.87
14666;BMP280;7420;53.574;10.040;2023-12-07T01:21:48;12624.84;;;-136.87
14666;BMP280;7420;53.574;10.040;2023-12-07T01:24:13;12628.88;;;-136.87
14666;BMP280;7420;53.574;10.040;2023-12-07T01:26:38;12632.91;;;-136.87
14666;BMP280;7420;53.574;10.040;2023-12-07T01:29:04;12663.06;;;-136.87
14666;BMP280;7420;53.574;10.040;2023-12-07T01:31:29;12644.97;;;-136.87
14666;BMP280;7420;53.574;10.040;2023-12-07T01:33:55;12646.97;;;-136.87
14666;BMP280;7420;53.574;10.040;2023-12-07T01:36:20;12689.25;;;-136.87
14666;BMP280;7420;53.574;10.040;2023-12-07T01:38:46;12693.25;;;-136.87
14666;BMP280;7420;53.574;10.040;2023-12-07T01:41:11;12655.03;;;-136.87
14666;BMP280;7420;53.574;10.040;2023-12-07T01:43:37;12681.19;;;-136.87
14666;BMP280;7420;53.574;10.040;2023-12-07T01:46:02;12624.84;;;-136.87
14666;BMP280;7420;53.574;10.040;2023-12-07T01:48:29;12653.03;;;-136.87
14666;BMP280;7420;53.574;10.040;2023-12-07T01:50:55;12622.84;;;-136.87
14666;BMP280;7420;53.574;10.040;2023-12-07T01:53:23;12649.00;;;-136.87
14666;BMP280;7420;53.574;10.040;2023-12-07T01:55:48;12624.84;;;-136.87
14666;BMP280;7420;53.574;10.040;2023-12-07T01:58:17;12604.72;;;-136.87
14666;BMP280;7420;53.574;10.040;2023-12-07T02:00:43;12620.81;;;-136.87
14666;BMP280;7420;53.574;10.040;2023-12-07T02:03:10;12616.81;;;-136.87
14666;BMP280;7420;53.574;10.040;2023-12-07T02:05:36;12612.78;;;-136.87
14666;BMP280;7420;53.574;10.040;2023-12-07T02:08:02;12586.63;;;-136.87
14666;BMP280;7420;53.574;10.040;2023-12-07T02:10:28;12606.75;;;-136.87
14666;BMP280;7420;53.574;10.040;2023-12-07T02:12:54;12582.59;;;-136.87
14666;BMP280;7420;53.574;10.040;2023-12-07T02:15:20;12594.66;;;-136.87
14666;BMP280;7420;53.574;10.040;2023-12-07T02:18:25;12560.47;;;-136.87
14666;BMP280;7420;53.574;10.040;2023-12-07T02:21:37;12616.81;;;-136.87
14666;BMP280;7420;53.574;10.040;2023-12-07T02:24:04;12592.66;;;-136.87
14666;BMP280;7420;53.574;10.040;2023-12-07T02:26:35;12568.50;;;-136.87
14666;BMP280;7420;53.574;10.040;2023-12-07T02:29:00;12640.94;;;-136.87
14666;BMP280;7420;53.574;10.040;2023-12-07T02:31:26;12560.47;;;-136.87
14666;BMP280;7420;53.574;10.040;2023-12-07T02:33:51;12518.22;;;-136.87
14666;BMP280;7420;53.574;10.040;2023-12-07T02:36:19;12592.66;;;-136.87
14666;BMP280;7420;53.574;10.040;2023-12-07T02:38:46;12596.69;;;-136.87
14666;BMP280;7420;53.574;10.040;2023-12-07T02:41:12;12620.81;;;-136.87
14666;BMP280;7420;53.574;10.040;2023-12-07T02:43:38;12588.63;;;-136.87
14666;BMP280;7420;53.574;10.040;2023-12-07T02:46:04;12554.44;;;-136.87
14666;BMP280;7420;53.574;10.040;2023-12-07T02:48:29;12592.66;;;-136.87
14666;BMP280;7420;53.574;10.040;2023-12-07T02:50:55;12612.78;;;-136.87
14666;BMP280;7420;53.574;10.040;2023-12-07T02:53:21;12614.78;;;-136.87
14666;BMP280;7420;53.574;10.040;2023-12-07T02:55:46;12620.81;;;-136.87
14666;BMP280;7420;53.574;10.040;2023-12-07T02:58:11;12580.59;;;-136.87
14666;BMP280;7420;53.574;10.040;2023-12-07T03:00:37;12600.69;;;-136.87
14666;BMP280;7420;53.574;10.040;2023-12-07T03:03:02;12564.50;;;-136.87
14666;BMP280;7420;53.574;10.040;2023-12-07T03:05:28;12580.59;;;-136.87
14666;BMP280;7420;53.574;10.040;2023-12-07T03:07:53;12520.22;;;-136.87
14666;BMP280;7420;53.574;10.040;2023-12-07T03:10:18;12560.47;;;-136.87
14666;BMP280;7420;53.574;10.040;2023-12-07T03:12:44;12504.13;;;-136.87
14666;BMP280;7420;53.574;10.040;2023-12-07T03:15:09;12600.69;;;-136.87
14666;BMP280;7420;53.574;10.040;2023-12-07T03:17:35;12582.59;;;-136.87
14666;BMP280;7420;53.574;10.040;2023-12-07T03:20:00;12584.59;;;-136.87
14666;BMP280;7420;53.574;10.040;2023-12-07T03:22:26;12614.78;;;-136.87
14666;BMP280;7420;53.574;10.040;2023-12-07T03:24:52;12614.78;;;-136.87
14666;BMP280;7420;53.574;10.040;2023-12-07T03:27:18;12606.75;;;-136.87
14666;BMP280;7420;53.574;10.040;2023-12-07T03:29:43;12546.38;;;-136.87
14666;BMP280;7420;53.574;10.040;2023-12-07T03:32:09;12566.50;;;-136.87
14666;BMP280;7420;53.574;10.040;2023-12-07T03:37:20;12548.38;;;-136.87
14666;BMP280;7420;53.574;10.040;2023-12-07T03:39:45;12580.59;;;-136.87
14666;BMP280;7420;53.574;10.040;2023-12-07T03:42:10;12552.41;;;-136.87
14666;BMP280;7420;53.574;10.040;2023-12-07T03:44:36;12564.50;;;-136.87
14666;BMP280;7420;53.574;10.040;2023-12-07T03:47:01;12498.09;;;-136.87
14666;BMP280;7420;53.574;10.040;2023-12-07T03:49:26;12526.25;;;-136.87
14666;BMP280;7420;53.574;10.040;2023-12-07T03:51:52;12526.25;;;-136.87
14666;BMP280;7420;53.574;10.040;2023-12-07T03:54:17;12488.03;;;-136.87
14666;BMP280;7420;53.574;10.040;2023-12-07T03:56:42;12484.00;;;-136.87
14666;BMP280;7420;53.574;10.040;2023-12-07T03:59:08;12530.28;;;-136.87
14666;BMP280;7420;53.574;10.040;2023-12-07T04:01:33;12536.31;;;-136.87
14666;BMP280;7420;53.574;10.040;2023-12-07T04:03:59;12508.16;;;-136.87
14666;BMP280;7420;53.574;10.040;2023-12-07T04:06:26;12488.03;;;-136.87
14666;BMP280;7420;53.574;10.040;2023-12-07T04:08:52;12471.94;;;-136.87
14666;BMP280;7420;53.574;10.040;2023-12-07T04:11:18;12471.94;;;-136.87
14666;BMP280;7420;53.574;10.040;2023-12-07T04:13:43;12477.97;;;-136.87
14666;BMP280;7420;53.574;10.040;2023-12-07T04:16:09;12461.88;;;-136.87
14666;BMP280;7420;53.574;10.040;2023-12-07T04:18:35;12435.72;;;-136.87
14666;BMP280;7420;53.574;10.040;2023-12-07T04:21:01;12427.66;;;-136.87
14666;BMP280;7420;53.574;10.040;2023-12-07T04:23:27;12419.63;;;-136.87
14666;BMP280;7420;53.574;10.040;2023-12-07T04:25:53;12447.78;;;-136.87
14666;BMP280;7420;53.574;10.040;2023-12-07T04:28:18;12425.66;;;-136.87
14666;BMP280;7420;53.574;10.040;2023-12-07T04:30:43;12423.66;;;-136.87
14666;BMP280;7420;53.574;10.040;2023-12-07T04:33:09;12413.59;;;-136.87
14666;BMP280;7420;53.574;10.040;2023-12-07T04:35:34;12429.69;;;-136.87
14666;BMP280;7420;53.574;10.040;2023-12-07T04:38:00;12419.63;;;-136.87
14666;BMP280;7420;53.574;10.040;2023-12-07T04:40:28;12437.72;;;-136.87
14666;BMP280;7420;53.574;10.040;2023-12-07T04:42:54;12407.56;;;-136.87
14666;BMP280;7420;53.574;10.040;2023-12-07T04:45:19;12355.25;;;-136.87
14666;BMP280;7420;53.574;10.040;2023-12-07T04:47:45;12373.34;;;-136.87
14666;BMP280;7420;53.574;10.040;2023-12-07T04:50:10;12387.44;;;-136.87
14666;BMP280;7420;53.574;10.040;2023-12-07T04:52:36;12403.53;;;-136.87
14666;BMP280;7420;53.574;10.040;2023-12-07T04:55:01;12413.59;;;-136.87
14666;BMP280;7420;53.574;10.040;2023-12-07T04:57:27;12465.91;;;-136.87
14666;BMP280;7420;53.574;10.040;2023-12-07T04:59:52;12508.16;;;-136.87
14666;BMP280;7420;53.574;10.040;2023-12-07T05:02:17;12494.06;;;-136.87
14666;BMP280;7420;53.574;10.040;2023-12-07T05:04:43;12504.13;;;-136.87
14666;BMP280;7420;53.574;10.040;2023-12-07T05:07:11;12490.03;;;-136.87
14666;BMP280;7420;53.574;10.040;2023-12-07T05:09:36;12425.66;;;-136.87
14666;BMP280;7420;53.574;10.040;2023-12-07T05:12:02;12395.47;;;-136.87
14666;BMP280;7420;53.574;10.040;2023-12-07T05:14:27;12391.47;;;-136.87
14666;BMP280;7420;53.574;10.040;2023-12-07T05:16:52;12383.41;;;-136.87
14666;BMP280;7420;53.574;10.040;2023-12-07T05:19:25;12391.47;;;-136.87
14666;BMP280;7420;53.574;10.040;2023-12-07T05:21:51;12395.47;;;-136.87
14666;BMP280;7420;53.574;10.040;2023-12-07T05:24:16;12369.31;;;-136.87
14666;BMP280;7420;53.574;10.040;2023-12-07T05:26:42;12357.25;;;-136.87
14666;BMP280;7420;53.574;10.040;2023-12-07T05:29:08;12343.16;;;-136.87
14666;BMP280;7420;53.574;10.040;2023-12-07T05:31:33;12355.25;;;-136.87
14666;BMP280;7420;53.574;10.040;2023-12-07T05:33:59;12347.19;;;-136.87
14666;BMP280;7420;53.574;10.040;2023-12-07T05:36:24;12409.56;;;-136.87
14666;BMP280;7420;53.574;10.040;2023-12-07T05:38:51;12345.19;;;-136.87
14666;BMP280;7420;53.574;10.040;2023-12-07T05:41:16;12379.38;;;-136.87
14666;BMP280;7420;53.574;10.040;2023-12-07T05:43:42;12393.47;;;-136.87
14666;BMP280;7420;53.574;10.040;2023-12-07T05:46:07;12375.38;;;-136.87
14666;BMP280;7420;53.574;10.040;2023-12-07T05:48:32;12351.22;;;-136.87
14666;BMP280;7420;53.574;10.040;2023-12-07T05:50:58;12387.44;;;-136.87
14666;BMP280;7420;53.574;10.040;2023-12-07T05:53:24;12363.28;;;-136.87
14666;BMP280;7420;53.574;10.040;2023-12-07T05:55:49;12391.47;;;-136.87
14666;BMP280;7420;53.574;10.040;2023-12-07T05:58:15;12405.53;;;-136.87
14666;BMP280;7420;53.574;10.040;2023-12-07T06:00:43;12375.38;;;-136.87
14666;BMP280;7420;53.574;10.040;2023-12-07T06:03:09;12343.16;;;-136.87
14666;BMP280;7420;53.574;10.040;2023-12-07T06:05:37;12369.31;;;-136.87
14666;BMP280;7420;53.574;10.040;2023-12-07T06:08:03;12393.47;;;-136.87
14666;BMP280;7420;53.574;10.040;2023-12-07T06:10:29;12333.13;;;-136.87
14666;BMP280;7420;53.574;10.040;2023-12-07T06:12:55;12310.97;;;-136.87
14666;BMP280;7420;53.574;10.040;2023-12-07T06:15:22;12353.22;;;-136.87
14666;BMP280;7420;53.574;10.040;2023-12-07T06:17:47;12359.25;;;-136.87
14666;BMP280;7420;53.574;10.040;2023-12-07T06:20:12;12333.13;;;-136.87
14666;BMP280;7420;53.574;10.040;2023-12-07T06:22:38;12286.84;;;-136.87
14666;BMP280;7420;53.574;10.040;2023-12-07T06:25:04;12298.91;;;-136.87
14666;BMP280;7420;53.574;10.040;2023-12-07T06:27:29;12306.97;;;-136.87
14666;BMP280;7420;53.574;10.040;2023-12-07T06:29:54;12280.81;;;-136.87
14666;BMP280;7420;53.574;10.040;2023-12-07T06:32:20;12300.91;;;-136.87
14666;BMP280;7420;53.574;10.040;2023-12-07T06:34:45;12317.03;;;-136.87
14666;BMP280;7420;53.574;10.040;2023-12-07T06:37:11;12246.59;;;-136.87
14666;BMP280;7420;53.574;10.040;2023-12-07T06:39:36;12218.44;;;-136.87
14666;BMP280;7420;53.574;10.040;2023-12-07T06:42:01;12218.44;;;-136.87
14666;BMP280;7420;53.574;10.040;2023-12-07T06:44:27;12296.91;;;-136.87
14666;BMP280;7420;53.574;10.040;2023-12-07T06:46:52;12266.72;;;-136.87
14666;BMP280;7420;53.574;10.040;2023-12-07T06:49:18;12238.56;;;-136.87
14666;BMP280;7420;53.574;10.040;2023-12-07T06:51:44;12228.50;;;-136.87
14666;BMP280;7420;53.574;10.040;2023-12-07T06:56:55;12304.94;;;-136.87
14666;BMP280;7420;53.574;10.040;2023-12-07T06:59:20;12290.88;;;-136.87
14666;BMP280;7420;53.574;10.040;2023-12-07T07:01:46;12294.88;;;-136.87
14666;BMP280;7420;53.574;10.040;2023-12-07T07:04:11;12276.78;;;-136.87
14666;BMP280;7420;53.574;10.040;2023-12-07T07:06:37;12266.72;;;-136.87
14666;BMP280;7420;53.574;10.040;2023-12-07T07:09:03;12266.72;;;-136.87
14666;BMP280;7420;53.574;10.040;2023-12-07T07:11:30;12264.72;;;-136.87
14666;BMP280;7420;53.574;10.040;2023-12-07T07:13:55;12236.53;;;-136.87
14666;BMP280;7420;53.574;10.040;2023-12-07T07:16:20;12242.56;;;-136.87
14666;BMP280;7420;53.574;10.040;2023-12-07T07:18:46;12228.50;;;-136.87
14666;BMP280;7420;53.574;10.040;2023-12-07T07:21:11;12210.38;;;-136.87
14666;BMP280;7420;53.574;10.040;2023-12-07T07:23:37;12226.47;;;-136.87
14666;BMP280;7420;53.574;10.040;2023-12-07T07:26:03;12246.59;;;-136.87
14666;BMP280;7420;53.574;10.040;2023-12-07T07:28:28;12290.88;;;-136.87
14666;BMP280;7420;53.574;10.040;2023-12-07T07:30:53;12246.59;;;-136.87
14666;BMP280;7420;53.574;10.040;2023-12-07T07:33:18;12230.50;;;-136.87
14666;BMP280;7420;53.574;10.040;2023-12-07T07:35:44;12208.38;;;-136.87
14666;BMP280;7420;53.574;10.040;2023-12-07T07:38:09;12174.19;;;-136.87
14666;BMP280;7420;53.574;10.040;2023-12-07T07:40:35;12170.16;;;-136.87
14666;BMP280;7420;53.574;10.040;2023-12-07T07:43:01;12186.25;;;-136.87
14666;BMP280;7420;53.574;10.040;2023-12-07T07:45:26;12184.25;;;-136.87
14666;BMP280;7420;53.574;10.040;2023-12-07T07:47:51;12200.34;;;-136.87
14666;BMP280;7420;53.574;10.040;2023-12-07T07:50:17;12204.34;;;-136.87
14666;BMP280;7420;53.574;10.040;2023-12-07T07:52:43;12174.19;;;-136.87
14666;BMP280;7420;53.574;10.040;2023-12-07T07:55:10;12214.41;;;-136.87
14666;BMP280;7420;53.574;10.040;2023-12-07T07:57:35;12222.47;;;-136.87
14666;BMP280;7420;53.574;10.040;2023-12-07T08:00:01;12238.56;;;-136.87
14666;BMP280;7420;53.574;10.040;2023-12-07T08:02:26;12298.91;;;-136.87
14666;BMP280;7420;53.574;10.040;2023-12-07T08:04:52;12200.34;;;-136.87
14666;BMP280;7420;53.574;10.040;2023-12-07T08:07:18;12176.19;;;-136.87
14666;BMP280;7420;53.574;10.040;2023-12-07T08:09:44;12164.13;;;-136.87
14666;BMP280;7420;53.574;10.040;2023-12-07T08:12:09;12222.47;;;-136.87
14666;BMP280;7420;53.574;10.040;2023-12-07T08:14:35;12196.31;;;-136.87
14666;BMP280;7420;53.574;10.040;2023-12-07T08:17:01;12144.00;;;-136.87
14666;BMP280;7420;53.574;10.040;2023-12-07T08:19:26;12101.75;;;-136.87
14666;BMP280;7420;53.574;10.040;2023-12-07T08:21:51;12079.63;;;-136.87
14666;BMP280;7420;53.574;10.040;2023-12-07T08:24:17;12067.56;;;-136.87
14666;BMP280;7420;53.574;10.040;2023-12-07T08:26:42;12037.38;;;-136.87
14666;BMP280;7420;53.574;10.040;2023-12-07T08:29:08;12069.56;;;-136.87
14666;BMP280;7420;53.574;10.040;2023-12-07T08:31:33;12027.31;;;-136.87
14666;BMP280;7420;53.574;10.040;2023-12-07T08:33:59;12033.34;;;-136.87
14666;BMP280;7420;53.574;10.040;2023-12-07T08:36:26;12045.44;;;-136.87
14666;BMP280;7420;53.574;10.040;2023-12-07T08:38:51;11971.00;;;-136.87
14666;BMP280;7420;53.574;10.040;2023-12-07T08:41:16;11946.84;;;-136.87
14666;BMP280;7420;53.574;10.040;2023-12-07T08:43:42;11888.53;;;-136.87
14666;BMP280;7420;53.574;10.040;2023-12-07T08:46:07;11894.56;;;-136.87
14666;BMP280;7420;53.574;10.040;2023-12-07T08:48:33;11808.06;;;-136.87
14666;BMP280;7420;53.574;10.040;2023-12-07T08:50:59;11812.09;;;-136.87
14666;BMP280;7420;53.574;10.040;2023-12-07T08:53:24;11755.75;;;-136.87
14666;BMP280;7420;53.574;10.040;2023-12-07T08:55:51;11791.97;;;-136.87
14666;BMP280;7420;53.574;10.040;2023-12-07T08:58:17;11773.88;;;-136.87
14666;BMP280;7420;53.574;10.040;2023-12-07T09:00:42;11703.47;;;-136.87
14666;BMP280;7420;53.574;10.040;2023-12-07T09:03:08;11717.53;;;-136.87
14666;BMP280;7420;53.574;10.040;2023-12-07T09:05:34;11739.69;;;-136.87
14666;BMP280;7420;53.574;10.040;2023-12-07T09:07:59;11671.28;;;-136.87
14666;BMP280;7420;53.574;10.040;2023-12-07T09:10:25;11590.84;;;-136.87
14666;BMP280;7420;53.574;10.040;2023-12-07T09:12:50;11673.28;;;-136.87
14666;BMP280;7420;53.574;10.040;2023-12-07T09:15:15;11687.38;;;-136.87
14666;BMP280;7420;53.574;10.040;2023-12-07T09:17:41;11645.13;;;-136.87
14666;BMP280;7420;53.574;10.040;2023-12-07T09:20:08;11631.06;;;-136.87
14666;BMP280;7420;53.574;10.040;2023-12-07T09:22:44;11637.09;;;-136.87
14666;BMP280;7420;53.574;10.040;2023-12-07T09:25:10;11629.03;;;-136.87
14666;BMP280;7420;53.574;10.040;2023-12-07T09:27:36;11619.00;;;-136.87
14666;BMP280;7420;53.574;10.040;2023-12-07T09:30:08;11639.09;;;-136.87
14666;BMP280;7420;53.574;10.040;2023-12-07T09:32:38;11687.38;;;-136.87
14666;BMP280;7420;53.574;10.040;2023-12-07T09:35:04;11681.34;;;-136.87
14666;BMP280;7420;53.574;10.040;2023-12-07T09:37:32;11731.63;;;-136.87
14666;BMP280;7420;53.574;10.040;2023-12-07T09:39:58;11763.81;;;-136.87
14666;BMP280;7420;53.574;10.040;2023-12-07T09:42:23;11731.63;;;-136.87
14666;BMP280;7420;53.574;10.040;2023-12-07T09:44:49;11663.25;;;-136.87
14666;BMP280;7420;53.574;10.040;2023-12-07T09:47:14;11665.25;;;-136.87
14666;BMP280;7420;53.574;10.040;2023-12-07T09:49:40;11627.03;;;-136.87
14666;BMP280;7420;53.574;10.040;2023-12-07T09:52:06;11635.09;;;-136.87
14666;BMP280;7420;53.574;10.040;2023-12-07T09:54:33;11578.75;;;-136.87
14666;BMP280;7420;53.574;10.040;2023-12-07T09:57:00;11610.94;;;-136.87
14666;BMP280;7420;53.574;10.040;2023-12-07T09:59:25;11735.66;;;-136.87
14666;BMP280;7420;53.574;10.040;2023-12-07T10:01:51;11645.13;;;-136.87
14666;BMP280;7420;53.574;10.040;2023-12-07T10:04:18;11645.13;;;-136.87
14666;BMP280;7420;53.574;10.040;2023-12-07T10:06:44;11703.47;;;-136.87
14666;BMP280;7420;53.574;10.040;2023-12-07T10:09:11;11570.72;;;-136.87
14666;BMP280;7420;53.574;10.040;2023-12-07T10:11:37;11653.19;;;-136.87
14666;BMP280;7420;53.574;10.040;2023-12-07T10:14:02;11667.25;;;-136.87
14666;BMP280;7420;53.574;10.040;2023-12-07T10:16:27;11775.88;;;-136.87
14666;BMP280;7420;53.574;10.040;2023-12-07T10:18:53;11627.03;;;-136.87
14666;BMP280;7420;53.574;10.040;2023-12-07T10:21:38;11695.41;;;-136.87
14666;BMP280;7420;53.574;10.040;2023-12-07T10:24:05;11733.63;;;-136.87
14666;BMP280;7420;53.574;10.040;2023-12-07T10:26:30;11775.88;;;-136.87
14666;BMP280;7420;53.574;10.040;2023-12-07T10:28:55;11687.38;;;-136.87
14666;BMP280;7420;53.574;10.040;2023-12-07T10:31:21;11691.41;;;-136.87
14666;BMP280;7420;53.574;10.040;2023-12-07T10:33:49;11661.22;;;-136.87
14666;BMP280;7420;53.574;10.040;2023-12-07T10:36:14;11594.84;;;-136.87
14666;BMP280;7420;53.574;10.040;2023-12-07T10:38:40;11550.59;;;-136.87
14666;BMP280;7420;53.574;10.040;2023-12-07T10:41:09;11610.94;;;-136.87
14666;BMP280;7420;53.574;10.040;2023-12-07T10:43:39;11639.09;;;-136.87
14666;BMP280;7420;53.574;10.040;2023-12-07T10:46:08;11647.16;;;-136.87
14666;BMP280;7420;53.574;10.040;2023-12-07T10:48:35;11633.06;;;-136.87
14666;BMP280;7420;53.574;10.040;2023-12-07T10:51:03;11705.47;;;-136.87
14666;BMP280;7420;53.574;10.040;2023-12-07T10:53:37;11711.50;;;-136.87
14666;BMP280;7420;53.574;10.040;2023-12-07T10:56:09;11717.53;;;-136.87
14666;BMP280;7420;53.574;10.040;2023-12-07T10:58:35;11657.22;;;-136.87
14666;BMP280;7420;53.574;10.040;2023-12-07T11:01:01;11679.34;;;-136.87
14666;BMP280;7420;53.574;10.040;2023-12-07T11:03:27;11651.16;;;-136.87
14666;BMP280;7420;53.574;10.040;2023-12-07T11:05:54;11627.03;;;-136.87
14666;BMP280;7420;53.574;10.040;2023-12-07T11:08:29;11773.88;;;-136.87
14666;BMP280;7420;53.574;10.040;2023-12-07T11:11:08;11787.94;;;-136.87
14666;BMP280;7420;53.574;10.040;2023-12-07T11:13:36;11667.25;;;-136.87
14666;BMP280;7420;53.574;10.040;2023-12-07T11:16:04;11558.66;;;-136.87
14666;BMP280;7420;53.574;10.040;2023-12-07T11:18:30;11522.44;;;-136.87
14666;BMP280;7420;53.574;10.040;2023-12-07T11:20:56;11440.00;;;-136.87
14666;BMP280;7420;53.574;10.040;2023-12-07T11:23:22;11566.69;;;-136.87
14666;BMP280;7420;53.574;10.040;2023-12-07T11:25:48;11651.16;;;-136.87
14666;BMP280;7420;53.574;10.040;2023-12-07T11:28:15;11482.22;;;-136.87
14666;BMP280;7420;53.574;10.040;2023-12-07T11:30:42;11425.91;;;-136.87
14666;BMP280;7420;53.574;10.040;2023-12-07T11:33:11;11351.50;;;-136.87
14666;BMP280;7420;53.574;10.040;2023-12-07T11:38:27;11514.41;;;-136.87
14666;BMP280;7420;53.574;10.040;2023-12-07T11:40:54;11506.34;;;-136.87
14666;BMP280;7420;53.574;10.040;2023-12-07T11:45:58;11548.59;;;-136.87
14666;BMP280;7420;53.574;10.040;2023-12-07T11:48:24;11518.44;;;-136.87
14666;BMP280;7420;53.574;10.040;2023-12-07T11:51:05;11476.19;;;-136.87
14666;BMP280;7420;53.574;10.040;2023-12-07T11:53:34;11462.09;;;-136.87
14666;BMP280;7420;53.574;10.040;2023-12-07T11:56:01;11446.03;;;-136.87
14666;BMP280;7420;53.574;10.040;2023-12-07T11:58:31;11442.00;;;-136.87
14666;BMP280;7420;53.574;10.040;2023-12-07T12:00:58;11466.13;;;-136.87
14666;BMP280;7420;53.574;10.040;2023-12-07T12:03:24;11584.78;;;-136.87
14666;BMP280;7420;53.574;10.040;2023-12-07T12:05:49;11548.59;;;-136.87
14666;BMP280;7420;53.574;10.040;2023-12-07T12:08:18;11496.31;;;-136.87
14666;BMP280;7420;53.574;10.040;2023-12-07T12:10:45;11444.00;;;-136.87
14666;BMP280;7420;53.574;10.040;2023-12-07T12:13:11;11393.72;;;-136.87
14666;BMP280;7420;53.574;10.040;2023-12-07T12:15:40;11405.78;;;-136.87
14666;BMP280;7420;53.574;10.040;2023-12-07T12:18:06;11341.44;;;-136.87
14666;BMP280;7420;53.574;10.040;2023-12-07T12:20:31;11355.50;;;-136.87
14666;BMP280;7420;53.574;10.040;2023-12-07T12:22:58;11317.31;;;-136.87
14666;BMP280;7420;53.574;10.040;2023-12-07T12:25:28;11186.59;;;-136.87
14666;BMP280;7420;53.574;10.040;2023-12-07T12:27:56;11210.72;;;-136.87
14666;BMP280;7420;53.574;10.040;2023-12-07T12:30:23;11206.69;;;-136.87
14666;BMP280;7420;53.574;10.040;2023-12-07T12:32:49;11226.81;;;-136.87
14666;BMP280;7420;53.574;10.040;2023-12-07T12:35:16;11196.63;;;-136.87
14666;BMP280;7420;53.574;10.040;2023-12-07T12:37:42;11220.78;;;-136.87
14666;BMP280;7420;53.574;10.040;2023-12-07T12:40:09;11269.03;;;-136.87
14666;BMP280;7420;53.574;10.040;2023-12-07T12:42:35;11220.78;;;-136.87
14666;BMP280;7420;53.574;10.040;2023-12-07T12:45:04;11273.06;;;-136.87
14666;BMP280;7420;53.574;10.040;2023-12-07T12:47:29;11256.97;;;-136.87
14666;BMP280;7420;53.574;10.040;2023-12-07T12:49:55;11293.16;;;-136.87
14666;BMP280;7420;53.574;10.040;2023-12-07T12:52:20;11301.22;;;-136.87
14666;BMP280;7420;53.574;10.040;2023-12-07T12:54:46;11329.38;;;-136.87
14666;BMP280;7420;53.574;10.040;2023-12-07T12:57:14;11329.38;;;-136.87
14666;BMP280;7420;53.574;10.040;2023-12-07T12:59:39;11345.47;;;-136.87
14666;BMP280;7420;53.574;10.040;2023-12-07T13:02:05;11377.63;;;-136.87
14666;BMP280;7420;53.574;10.040;2023-12-07T13:04:30;11347.47;;;-136.87
14666;BMP280;7420;53.574;10.040;2023-12-07T13:06:56;11365.56;;;-136.87
14666;BMP280;7420;53.574;10.040;2023-12-07T13:09:21;11399.75;;;-136.87
14666;BMP280;7420;53.574;10.040;2023-12-07T13:11:47;11423.91;;;-136.87
14666;BMP280;7420;53.574;10.040;2023-12-07T13:14:12;11419.88;;;-136.87
14666;BMP280;7420;53.574;10.040;2023-12-07T13:16:38;11417.88;;;-136.87
14666;BMP280;7420;53.574;10.040;2023-12-07T13:19:03;11409.81;;;-136.87
14666;BMP280;7420;53.574;10.040;2023-12-07T13:21:29;11427.91;;;-136.87
14666;BMP280;7420;53.574;10.040;2023-12-07T13:23:54;11425.91;;;-136.87
14666;BMP280;7420;53.574;10.040;2023-12-07T13:26:20;11397.75;;;-136.87
14666;BMP280;7420;53.574;10.040;2023-12-07T13:31:13;11401.78;;;-136.87
14666;BMP280;7420;53.574;10.040;2023-12-07T13:33:38;11367.59;;;-136.87
14666;BMP280;7420;53.574;10.040;2023-12-07T13:36:05;11476.19;;;-136.87
14666;BMP280;7420;53.574;10.040;2023-12-07T13:38:31;11425.91;;;-136.87
14666;BMP280;7420;53.574;10.040;2023-12-07T13:40:56;11419.88;;;-136.87
14666;BMP280;7420;53.574;10.040;2023-12-07T13:43:22;11351.50;;;-136.87
14666;BMP280;7420;53.574;10.040;2023-12-07T13:45:49;11391.72;;;-136.87
14666;BMP280;7420;53.574;10.040;2023-12-07T13:48:15;11429.94;;;-136.87
14666;BMP280;7420;53.574;10.040;2023-12-07T13:50:41;11482.22;;;-136.87
14666;BMP280;7420;53.574;10.040;2023-12-07T13:53:07;11488.25;;;-136.87
14666;BMP280;7420;53.574;10.040;2023-12-07T13:55:36;11494.28;;;-136.87